createdAt,value
2022-10-29T00:00:58.825Z,23.60
2022-10-29T00:03:27.334Z,23.70
2022-10-29T00:06:00.048Z,23.80
2022-10-29T00:08:29.851Z,23.80
2022-10-29T00:11:05.459Z,23.90
2022-10-29T00:13:35.697Z,23.90
2022-10-29T00:16:06.947Z,23.90
2022-10-29T00:18:35.059Z,23.80
2022-10-29T00:21:04.454Z,23.80
2022-10-29T00:23:32.581Z,23.80
2022-10-29T00:26:02.315Z,23.80
2022-10-29T00:28:30.770Z,23.80
2022-10-29T00:31:04.018Z,23.80
2022-10-29T00:33:32.534Z,23.80
2022-10-29T00:36:03.107Z,23.80
2022-10-29T00:38:32.543Z,23.90
2022-10-29T00:41:01.200Z,23.90
2022-10-29T00:43:29.646Z,23.90
2022-10-29T00:46:02.513Z,24.00
2022-10-29T00:48:33.424Z,24.00
2022-10-29T00:51:03.143Z,24.00
2022-10-29T00:53:38.581Z,24.00
2022-10-29T00:56:07.556Z,24.00
2022-10-29T00:58:36.789Z,24.00
2022-10-29T01:01:07.134Z,24.00
2022-10-29T01:03:35.305Z,24.00
2022-10-29T01:06:04.670Z,24.00
2022-10-29T01:08:32.884Z,23.90
2022-10-29T01:11:09.074Z,23.70
2022-10-29T01:13:53.614Z,23.70
2022-10-29T01:16:30.327Z,23.60
2022-10-29T01:19:13.891Z,23.70
2022-10-29T01:21:45.634Z,23.70
2022-10-29T01:25:02.886Z,23.70
2022-10-29T01:27:57.470Z,23.60
2022-10-29T01:30:50.097Z,23.30
2022-10-29T01:33:24.202Z,23.00
2022-10-29T01:35:59.289Z,23.00
2022-10-29T01:38:35.834Z,22.70
2022-10-29T01:41:10.139Z,22.50
2022-10-29T01:43:42.945Z,22.40
2022-10-29T01:46:17.255Z,22.20
2022-10-29T01:48:51.902Z,22.20
2022-10-29T01:51:23.047Z,22.10
2022-10-29T01:53:51.962Z,21.80
2022-10-29T01:56:20.366Z,21.80
2022-10-29T01:58:53.910Z,21.90
2022-10-29T02:01:36.502Z,22.00
2022-10-29T02:04:18.584Z,22.00
2022-10-29T02:07:07.316Z,21.90
2022-10-29T02:09:42.010Z,22.10
2022-10-29T02:12:18.600Z,22.00
2022-10-29T02:14:51.533Z,21.60
2022-10-29T02:17:19.935Z,21.50
2022-10-29T02:19:49.444Z,21.50
2022-10-29T02:22:17.563Z,21.40
2022-10-29T02:24:45.663Z,21.60
2022-10-29T02:27:13.751Z,21.80
2022-10-29T02:29:41.873Z,22.00
2022-10-29T02:32:09.995Z,22.20
2022-10-29T02:34:38.074Z,22.40
2022-10-29T02:37:07.589Z,22.50
2022-10-29T02:39:35.815Z,22.60
2022-10-29T02:42:03.944Z,22.60
2022-10-29T02:44:32.110Z,22.70
2022-10-29T02:47:00.229Z,22.80
2022-10-29T02:49:28.442Z,22.80
2022-10-29T02:51:56.524Z,22.70
2022-10-29T02:54:25.986Z,22.70
2022-10-29T02:56:54.063Z,22.70
2022-10-29T02:59:22.225Z,22.70
2022-10-29T03:01:50.441Z,22.80
2022-10-29T03:04:18.817Z,22.90
2022-10-29T03:06:46.944Z,22.90
2022-10-29T03:09:15.123Z,23.00
2022-10-29T03:11:44.641Z,23.10
2022-10-29T03:14:12.811Z,23.20
2022-10-29T03:16:40.894Z,23.20
2022-10-29T03:19:09.012Z,23.30
2022-10-29T03:21:37.962Z,23.40
2022-10-29T03:24:06.724Z,23.40
2022-10-29T03:26:34.833Z,23.50
2022-10-29T03:29:04.499Z,23.50
2022-10-29T03:31:34.919Z,23.50
2022-10-29T03:34:03.140Z,23.50
2022-10-29T03:36:31.491Z,23.50
2022-10-29T03:38:59.611Z,23.40
2022-10-29T03:41:27.781Z,23.30
2022-10-29T03:46:30.490Z,23.10
2022-10-29T03:48:58.582Z,23.10
2022-10-29T03:51:26.724Z,23.20
2022-10-29T03:53:54.882Z,23.10
2022-10-29T03:56:22.963Z,23.10
2022-10-29T03:58:51.089Z,23.20
2022-10-29T04:01:19.305Z,23.20
2022-10-29T04:03:48.823Z,23.20
2022-10-29T04:06:18.300Z,23.30
2022-10-29T04:08:46.434Z,23.30
2022-10-29T04:11:16.369Z,23.30
2022-10-29T04:13:44.455Z,23.40
2022-10-29T04:16:12.521Z,23.40
2022-10-29T04:18:40.885Z,23.40
2022-10-29T04:29:35.118Z,23.50
2022-10-29T04:32:03.235Z,23.50
2022-10-29T04:34:31.307Z,23.50
2022-10-29T04:37:00.777Z,23.50
2022-10-29T04:39:28.881Z,23.50
2022-10-29T04:41:57.019Z,23.50
2022-10-29T04:44:25.094Z,23.40
2022-10-29T04:46:53.225Z,23.40
2022-10-29T04:49:21.388Z,23.30
2022-10-29T04:51:49.520Z,23.30
2022-10-29T04:54:19.000Z,23.30
2022-10-29T04:56:47.208Z,23.30
2022-10-29T04:59:15.477Z,23.20
2022-10-29T05:01:43.567Z,23.10
2022-10-29T05:04:11.697Z,23.10
2022-10-29T05:06:39.857Z,23.00
2022-10-29T05:09:07.952Z,23.10
2022-10-29T05:11:37.412Z,23.10
2022-10-29T05:14:05.716Z,23.20
2022-10-29T05:16:33.877Z,23.20
2022-10-29T05:19:02.837Z,23.30
2022-10-29T05:21:30.979Z,23.30
2022-10-29T05:23:59.452Z,23.40
2022-10-29T05:26:27.544Z,23.40
2022-10-29T05:28:56.979Z,23.50
2022-10-29T05:31:25.183Z,23.50
2022-10-29T05:33:55.613Z,23.50
2022-10-29T05:36:24.448Z,23.60
2022-10-29T05:38:52.649Z,23.60
2022-10-29T05:41:20.805Z,23.60
2022-10-29T05:43:50.297Z,23.60
2022-10-29T05:46:19.774Z,23.70
2022-10-29T05:48:47.961Z,23.70
2022-10-29T05:51:16.290Z,23.60
2022-10-29T05:53:44.482Z,23.60
2022-10-29T05:56:12.591Z,23.60
2022-10-29T05:58:40.682Z,23.60
2022-10-29T06:01:09.576Z,23.60
2022-10-29T06:03:39.725Z,23.60
2022-10-29T06:06:08.559Z,23.60
2022-10-29T06:08:36.742Z,23.70
2022-10-29T06:11:05.666Z,23.70
2022-10-29T06:13:34.121Z,23.70
2022-10-29T06:16:02.300Z,23.70
2022-10-29T06:18:30.842Z,23.70
2022-10-29T06:21:01.347Z,23.70
2022-10-29T06:23:29.777Z,23.70
2022-10-29T06:26:00.767Z,23.70
2022-10-29T06:28:33.774Z,23.70
2022-10-29T06:31:03.486Z,23.70
2022-10-29T06:33:31.710Z,23.70
2022-10-29T06:36:02.257Z,23.70
2022-10-29T06:38:30.361Z,23.60
2022-10-29T06:40:58.474Z,23.60
2022-10-29T06:43:26.687Z,23.50
2022-10-29T06:45:54.781Z,23.30
2022-10-29T06:48:23.095Z,23.10
2022-10-29T06:50:51.596Z,23.10
2022-10-29T06:53:21.622Z,23.00
2022-10-29T06:55:49.805Z,22.90
2022-10-29T06:58:19.574Z,22.90
2022-10-29T07:00:48.580Z,22.90
2022-10-29T07:03:18.514Z,23.00
2022-10-29T07:05:47.071Z,23.00
2022-10-29T07:08:15.244Z,23.10
2022-10-29T07:10:44.744Z,23.20
2022-10-29T07:13:12.865Z,23.10
2022-10-29T07:15:40.975Z,23.10
2022-10-29T07:18:10.491Z,22.80
2022-10-29T07:20:40.654Z,22.60
2022-10-29T07:23:08.932Z,22.40
2022-10-29T07:25:38.545Z,22.40
2022-10-29T07:28:09.778Z,22.60
2022-10-29T07:30:38.318Z,22.80
2022-10-29T07:33:06.526Z,22.90
2022-10-29T07:35:35.282Z,23.00
2022-10-29T07:38:07.278Z,23.10
2022-10-29T07:40:39.689Z,23.20
2022-10-29T07:43:10.138Z,23.40
2022-10-29T07:45:38.382Z,23.30
2022-10-29T07:48:08.574Z,23.20
2022-10-29T07:50:37.482Z,23.30
2022-10-29T07:53:06.587Z,23.20
2022-10-29T07:55:35.052Z,23.10
2022-10-29T07:58:05.847Z,23.10
2022-10-29T08:00:37.677Z,23.00
2022-10-29T08:03:09.743Z,22.90
2022-10-29T08:05:37.837Z,22.90
2022-10-29T08:08:06.797Z,22.80
2022-10-29T08:10:36.431Z,22.80
2022-10-29T08:13:06.435Z,22.70
2022-10-29T08:15:36.172Z,22.40
2022-10-29T08:18:10.407Z,22.20
2022-10-29T08:20:38.557Z,22.20
2022-10-29T08:23:06.648Z,22.10
2022-10-29T08:25:34.792Z,22.00
2022-10-29T08:28:05.034Z,21.70
2022-10-29T08:30:33.541Z,21.50
2022-10-29T08:33:03.315Z,21.30
2022-10-29T08:35:31.708Z,21.30
2022-10-29T08:38:00.106Z,21.20
2022-10-29T08:40:39.310Z,21.20
2022-10-29T08:43:37.434Z,21.40
2022-10-29T08:46:06.084Z,21.60
2022-10-29T08:48:46.489Z,21.90
2022-10-29T08:51:20.212Z,22.20
2022-10-29T08:54:10.419Z,22.40
2022-10-29T08:56:41.176Z,22.30
2022-10-29T08:59:14.585Z,22.00
2022-10-29T09:01:43.289Z,21.90
2022-10-29T09:04:25.964Z,21.60
2022-10-29T09:07:11.062Z,21.40
2022-10-29T09:09:43.025Z,21.30
2022-10-29T09:15:29.256Z,20.50
2022-10-29T09:18:15.486Z,20.20
2022-10-29T09:20:53.303Z,20.10
2022-10-29T09:23:37.719Z,20.00
2022-10-29T09:26:07.865Z,19.90
2022-10-29T09:28:45.796Z,19.90
2022-10-29T09:31:26.818Z,20.00
2022-10-29T09:33:59.377Z,20.00
2022-10-29T09:36:31.941Z,20.10
2022-10-29T09:39:02.785Z,20.20
2022-10-29T09:41:34.040Z,20.20
2022-10-29T09:44:12.204Z,20.30
2022-10-29T09:46:50.331Z,20.30
2022-10-29T09:49:34.150Z,20.40
2022-10-29T09:52:05.812Z,20.60
2022-10-29T09:54:34.715Z,20.80
2022-10-29T09:57:04.475Z,21.00
2022-10-29T09:59:36.458Z,21.20
2022-10-29T10:02:25.630Z,21.30
2022-10-29T10:04:57.541Z,21.40
2022-10-29T10:07:25.643Z,21.50
2022-10-29T10:09:56.422Z,21.60
2022-10-29T10:12:26.912Z,21.70
2022-10-29T10:15:18.038Z,21.70
2022-10-29T10:18:00.779Z,21.70
2022-10-29T10:20:38.374Z,21.90
2022-10-29T10:23:24.349Z,22.00
2022-10-29T10:25:53.454Z,22.20
2022-10-29T10:28:23.057Z,22.40
2022-10-29T10:31:07.696Z,22.60
2022-10-29T10:33:44.677Z,22.80
2022-10-29T10:36:12.916Z,22.90
2022-10-29T10:38:44.605Z,23.10
2022-10-29T10:41:15.475Z,23.30
2022-10-29T10:43:45.153Z,23.50
2022-10-29T10:46:17.413Z,23.70
2022-10-29T10:48:57.308Z,23.80
2022-10-29T10:51:29.182Z,23.80
2022-10-29T10:53:57.806Z,23.90
2022-10-29T10:56:26.002Z,24.00
2022-10-29T10:59:05.506Z,24.10
2022-10-29T11:01:38.502Z,24.20
2022-10-29T11:04:16.075Z,24.30
2022-10-29T11:06:49.173Z,24.30
2022-10-29T11:09:25.364Z,24.30
2022-10-29T11:12:00.391Z,24.40
2022-10-29T11:14:34.617Z,24.50
2022-10-29T11:17:04.481Z,24.60
2022-10-29T11:19:39.985Z,24.60
2022-10-29T11:22:18.558Z,24.70
2022-10-29T11:24:52.281Z,24.80
2022-10-29T11:27:29.330Z,24.90
2022-10-29T11:30:05.019Z,24.90
2022-10-29T11:32:42.361Z,24.80
2022-10-29T11:35:15.016Z,24.80
2022-10-29T11:37:49.643Z,24.80
2022-10-29T11:40:22.969Z,24.70
2022-10-29T11:42:51.250Z,24.70
2022-10-29T11:45:23.276Z,24.70
2022-10-29T11:48:07.387Z,24.60
2022-10-29T11:50:45.955Z,24.60
2022-10-29T11:53:26.793Z,24.70
2022-10-29T11:56:04.720Z,24.60
2022-10-29T11:58:40.596Z,24.70
2022-10-29T12:01:17.103Z,24.80
2022-10-29T12:06:47.340Z,24.90
2022-10-29T12:09:42.937Z,25.00
2022-10-29T12:12:17.257Z,25.00
2022-10-29T12:14:50.632Z,25.10
2022-10-29T12:17:24.257Z,25.10
2022-10-29T12:20:02.104Z,25.20
2022-10-29T12:22:39.237Z,25.20
2022-10-29T12:25:22.336Z,25.20
2022-10-29T12:28:00.740Z,25.20
2022-10-29T12:30:33.841Z,25.20
2022-10-29T12:33:07.616Z,25.20
2022-10-29T12:35:44.060Z,25.30
2022-10-29T12:38:30.992Z,25.40
2022-10-29T12:41:04.819Z,25.40
2022-10-29T12:43:36.246Z,25.50
2022-10-29T12:46:19.907Z,25.60
2022-10-29T12:48:57.381Z,25.60
2022-10-29T12:51:34.599Z,25.70
2022-10-29T12:54:16.969Z,25.70
2022-10-29T12:56:47.918Z,25.70
2022-10-29T12:59:37.918Z,25.80
2022-10-29T13:02:28.087Z,25.80
2022-10-29T13:05:16.837Z,25.80
2022-10-29T13:08:27.746Z,25.80
2022-10-29T13:10:58.162Z,25.80
2022-10-29T13:13:43.793Z,25.80
2022-10-29T13:16:17.942Z,25.80
2022-10-29T13:19:07.515Z,25.80
2022-10-29T13:22:01.676Z,25.80
2022-10-29T13:24:30.757Z,25.80
2022-10-29T13:27:03.117Z,25.80
2022-10-29T13:29:51.337Z,25.70
2022-10-29T13:32:34.004Z,25.70
2022-10-29T13:35:03.177Z,25.70
2022-10-29T13:38:11.223Z,25.60
2022-10-29T13:41:13.157Z,25.60
2022-10-29T13:43:52.469Z,25.60
2022-10-29T13:46:50.044Z,25.60
2022-10-29T13:49:22.541Z,25.60
2022-10-29T13:52:02.160Z,25.60
2022-10-29T13:54:43.530Z,25.60
2022-10-29T13:57:20.279Z,25.50
2022-10-29T13:59:56.066Z,25.50
2022-10-29T14:02:33.186Z,25.50
2022-10-29T14:05:08.388Z,25.40
2022-10-29T14:07:43.239Z,25.40
2022-10-29T14:10:19.369Z,25.30
2022-10-29T14:12:50.090Z,25.30
2022-10-29T14:15:19.716Z,25.20
2022-10-29T14:17:47.810Z,25.20
2022-10-29T14:20:28.324Z,25.20
2022-10-29T14:22:56.908Z,25.20
2022-10-29T14:25:36.812Z,25.10
2022-10-29T14:28:15.945Z,25.10
2022-10-29T14:30:45.609Z,25.10
2022-10-29T14:33:23.806Z,25.10
2022-10-29T14:35:54.332Z,25.00
2022-10-29T14:38:26.977Z,25.00
2022-10-29T14:40:55.106Z,25.00
2022-10-29T14:43:26.775Z,25.00
2022-10-29T14:45:57.351Z,25.00
2022-10-29T14:48:25.707Z,25.00
2022-10-29T14:50:56.604Z,24.90
2022-10-29T14:53:32.585Z,24.90
2022-10-29T14:56:04.328Z,24.90
2022-10-29T14:58:34.824Z,24.90
2022-10-29T15:01:09.969Z,24.80
2022-10-29T15:03:38.754Z,24.80
2022-10-29T15:06:16.398Z,24.70
2022-10-29T15:08:46.313Z,24.70
2022-10-29T15:11:37.765Z,24.70
2022-10-29T15:14:24.814Z,24.70
2022-10-29T15:16:54.426Z,24.70
2022-10-29T15:19:22.872Z,24.70
2022-10-29T15:21:51.415Z,24.60
2022-10-29T15:24:23.490Z,24.60
2022-10-29T15:26:55.894Z,24.60
2022-10-29T15:29:33.385Z,24.70
2022-10-29T15:32:04.334Z,24.70
2022-10-29T15:34:34.245Z,24.70
2022-10-29T15:37:22.171Z,24.70
2022-10-29T15:40:05.805Z,24.70
2022-10-29T15:42:35.201Z,24.70
2022-10-29T15:45:20.796Z,24.70
2022-10-29T15:47:51.798Z,24.70
2022-10-29T15:50:23.540Z,24.70
2022-10-29T15:52:57.808Z,24.70
2022-10-29T15:55:29.124Z,24.60
2022-10-29T15:58:02.597Z,24.60
2022-10-29T16:00:31.516Z,24.60
2022-10-29T16:03:10.289Z,24.60
2022-10-29T16:05:38.563Z,24.60
2022-10-29T16:08:07.090Z,24.60
2022-10-29T16:10:35.862Z,24.70
2022-10-29T16:13:03.972Z,24.70
2022-10-29T16:15:32.002Z,24.70
2022-10-29T16:18:01.454Z,24.70
2022-10-29T16:20:29.594Z,24.80
2022-10-29T16:22:57.691Z,24.80
2022-10-29T16:25:27.765Z,24.90
2022-10-29T16:27:56.419Z,24.90
2022-10-29T16:30:25.298Z,24.90
2022-10-29T16:32:54.126Z,24.90
2022-10-29T16:35:25.519Z,25.00
2022-10-29T16:37:54.890Z,25.00
2022-10-29T16:40:25.420Z,25.00
2022-10-29T16:42:55.292Z,25.10
2022-10-29T16:45:25.957Z,25.10
2022-10-29T16:47:54.760Z,25.10
2022-10-29T16:50:26.147Z,25.20
2022-10-29T16:52:59.143Z,25.20
2022-10-29T16:55:27.709Z,25.10
2022-10-29T16:57:56.096Z,25.00
2022-10-29T17:00:25.920Z,25.00
2022-10-29T17:02:54.429Z,25.00
2022-10-29T17:05:24.565Z,24.90
2022-10-29T17:07:54.970Z,24.90
2022-10-29T17:10:23.684Z,25.00
2022-10-29T17:12:51.775Z,25.00
2022-10-29T17:15:19.893Z,25.00
2022-10-29T17:17:47.993Z,25.00
2022-10-29T17:20:16.150Z,25.00
2022-10-29T17:22:45.653Z,25.00
2022-10-29T17:25:13.795Z,25.00
2022-10-29T17:27:42.191Z,25.00
2022-10-29T17:30:11.761Z,25.00
2022-10-29T17:32:40.060Z,25.00
2022-10-29T17:35:08.630Z,25.00
2022-10-29T17:37:36.767Z,25.00
2022-10-29T17:40:08.460Z,25.00
2022-10-29T17:42:36.773Z,24.90
2022-10-29T17:45:05.169Z,24.90
2022-10-29T17:47:33.246Z,24.90
2022-10-29T17:50:01.366Z,24.90
2022-10-29T17:52:29.409Z,24.90
2022-10-29T17:54:57.446Z,24.90
2022-10-29T17:57:26.965Z,24.90
2022-10-29T17:59:55.113Z,24.90
2022-10-29T18:02:23.552Z,24.80
2022-10-29T18:04:51.973Z,24.80
2022-10-29T18:07:20.035Z,24.80
2022-10-29T18:09:48.138Z,24.80
2022-10-29T18:12:16.252Z,24.80
2022-10-29T18:14:45.707Z,24.80
2022-10-29T18:17:13.765Z,24.80
2022-10-29T18:19:41.832Z,24.80
2022-10-29T18:22:09.935Z,24.80
2022-10-29T18:24:38.022Z,24.80
2022-10-29T18:27:06.139Z,24.80
2022-10-29T18:29:34.184Z,24.80
2022-10-29T18:32:03.593Z,24.80
2022-10-29T18:34:31.758Z,24.80
2022-10-29T18:36:59.842Z,24.80
2022-10-29T18:39:27.925Z,24.80
2022-10-29T18:41:56.976Z,24.80
2022-10-29T18:44:25.136Z,24.80
2022-10-29T18:46:53.411Z,24.70
2022-10-29T18:49:22.862Z,24.70
2022-10-29T18:51:51.019Z,24.70
2022-10-29T18:54:19.720Z,24.70
2022-10-29T18:56:47.922Z,24.70
2022-10-29T18:59:16.051Z,24.70
2022-10-29T19:01:44.176Z,24.70
2022-10-29T19:04:16.134Z,24.70
2022-10-29T19:06:45.610Z,24.70
2022-10-29T19:09:13.825Z,24.70
2022-10-29T19:11:41.979Z,24.70
2022-10-29T19:14:13.891Z,24.70
2022-10-29T19:16:42.051Z,24.70
2022-10-29T19:19:13.133Z,24.70
2022-10-29T19:21:43.099Z,24.70
2022-10-29T19:24:14.702Z,24.70
2022-10-29T19:26:42.998Z,24.70
2022-10-29T19:29:12.130Z,24.60
2022-10-29T19:31:40.636Z,24.60
2022-10-29T19:34:09.231Z,24.60
2022-10-29T19:36:39.975Z,24.60
2022-10-29T19:39:08.753Z,24.60
2022-10-29T19:41:38.248Z,24.60
2022-10-29T19:44:06.650Z,24.60
2022-10-29T19:46:34.797Z,24.60
2022-10-29T19:49:03.742Z,24.60
2022-10-29T19:51:31.911Z,24.60
2022-10-29T19:54:02.023Z,24.60
2022-10-29T19:56:30.219Z,24.60
2022-10-29T19:58:59.719Z,24.60
2022-10-29T20:01:27.884Z,24.60
2022-10-29T20:03:56.053Z,24.60
2022-10-29T20:06:24.249Z,24.60
2022-10-29T20:08:52.390Z,24.60
2022-10-29T20:11:20.472Z,24.60
2022-10-29T20:13:48.580Z,24.60
2022-10-29T20:16:19.389Z,24.60
2022-10-29T20:18:48.474Z,24.60
2022-10-29T20:21:16.976Z,24.60
2022-10-29T20:23:45.476Z,24.60
2022-10-29T20:26:13.861Z,24.60
2022-10-29T20:28:42.112Z,24.60
2022-10-29T20:31:15.553Z,24.60
2022-10-29T20:33:50.318Z,24.60
2022-10-29T20:36:18.420Z,24.60
2022-10-29T20:38:50.109Z,24.60
2022-10-29T20:41:18.315Z,24.60
2022-10-29T20:43:46.799Z,24.60
2022-10-29T20:46:14.938Z,24.50
2022-10-29T20:48:44.353Z,24.50
2022-10-29T20:51:13.473Z,24.50
2022-10-29T20:53:41.849Z,24.50
2022-10-29T20:56:13.243Z,24.50
2022-10-29T20:58:44.753Z,24.50
2022-10-29T21:01:15.066Z,24.50
2022-10-29T21:03:45.032Z,24.50
2022-10-29T21:06:17.663Z,24.50
2022-10-29T21:08:45.953Z,24.50
2022-10-29T21:11:15.701Z,24.50
2022-10-29T21:13:44.110Z,24.50
2022-10-29T21:16:16.525Z,24.50
2022-10-29T21:18:48.116Z,24.50
2022-10-29T21:21:17.325Z,24.50
2022-10-29T21:23:45.786Z,24.50
2022-10-29T21:26:16.498Z,24.50
2022-10-29T21:28:44.615Z,24.50
2022-10-29T21:31:13.039Z,24.50
2022-10-29T21:33:41.265Z,24.50
2022-10-29T21:36:14.133Z,24.40
2022-10-29T21:38:42.282Z,24.40
2022-10-29T21:41:10.428Z,24.40
2022-10-29T21:43:39.056Z,24.40
2022-10-29T21:46:07.643Z,24.40
2022-10-29T21:48:35.797Z,24.40
2022-10-29T21:51:05.756Z,24.40
2022-10-29T21:53:35.718Z,24.40
2022-10-29T21:56:06.150Z,24.40
2022-10-29T21:58:34.875Z,24.40
2022-10-29T22:01:04.608Z,24.40
2022-10-29T22:03:33.496Z,24.40
2022-10-29T22:06:05.968Z,24.40
2022-10-29T22:08:35.856Z,24.40
2022-10-29T22:11:04.925Z,24.40
2022-10-29T22:13:34.284Z,24.40
2022-10-29T22:16:02.660Z,24.40
2022-10-29T22:18:31.241Z,24.40
2022-10-29T22:21:11.386Z,24.40
2022-10-29T22:23:45.209Z,24.40
2022-10-29T22:26:14.359Z,24.40
2022-10-29T22:28:42.588Z,24.40
2022-10-29T22:31:10.629Z,24.40
2022-10-29T22:33:38.691Z,24.40
2022-10-29T22:36:09.645Z,24.40
2022-10-29T22:38:38.246Z,24.40
2022-10-29T22:41:09.392Z,24.40
2022-10-29T22:43:37.795Z,24.40
2022-10-29T22:46:07.451Z,24.40
2022-10-29T22:48:36.168Z,24.40
2022-10-29T22:51:06.676Z,24.40
2022-10-29T22:53:35.190Z,24.40
2022-10-29T22:56:04.345Z,24.40
2022-10-29T22:58:33.954Z,24.30
2022-10-29T23:01:03.185Z,24.30
2022-10-29T23:03:31.451Z,24.30
2022-10-29T23:06:00.565Z,24.30
2022-10-29T23:08:29.256Z,24.30
2022-10-29T23:10:57.318Z,24.30
2022-10-29T23:13:25.487Z,24.30
2022-10-29T23:15:55.066Z,24.30
2022-10-29T23:18:23.113Z,24.30
2022-10-29T23:20:59.131Z,24.30
2022-10-29T23:23:27.286Z,24.30
2022-10-29T23:26:00.384Z,24.30
2022-10-29T23:28:28.842Z,24.30
2022-10-29T23:30:59.508Z,24.30
2022-10-29T23:33:27.746Z,24.30
2022-10-29T23:35:56.012Z,24.30
2022-10-29T23:38:24.118Z,24.30
2022-10-29T23:40:52.254Z,24.30
2022-10-29T23:43:20.324Z,24.30
2022-10-29T23:45:48.401Z,24.30
2022-10-29T23:48:19.303Z,24.30
2022-10-29T23:50:48.450Z,24.20
2022-10-29T23:53:17.169Z,24.30
2022-10-29T23:55:45.960Z,24.20
2022-10-29T23:58:14.869Z,24.20
